^^
Station Historical Data
Daily Summary for February 11, 2018 Units:  Metric    English   Both
« Previous Day
Next Day »
Daily Weekly Monthly Yearly Custom
  High: Low: Average:
Temperature: -17.8 °C 14.7 °C 19.9 °C
Dew Point: -17.8 °C 12.6 °C 13.1 °C
Humidity: Humidity% 52% 65%
Wind Speed: 0km/h -1609.1km/h -20.9km/h
Wind Gust: 0km/h - -
Wind- -
Pressure: 0 hPa 1005.3 hPa -
Precipitation: 0 mm    
Historical Graphs
 
 
Tabular Data for February 11, 2018
Time Temperature Dew Point Pressure Wind Wind Speed Wind Gust Humidity Rainfall Rate (Hourly) solar Conditions
-17.8 °C -17.8 °C 0 hPa Calm     Humidity% 0 mm SoftwareType W/m2 Conditions
08:48 14.7 °C 12.7 °C 1008 hPa North -1609.1 km/h -1607.7 km/h 88% 0 mm meteobridge W/m2
08:54 14.9 °C 12.8 °C 1008 hPa NNE 14.3 km/h 22.5 km/h 87% 0 mm meteobridge W/m2
09:00 15.1 °C 13 °C 1008 hPa NE 7.9 km/h 25.7 km/h 87% 0 mm meteobridge W/m2
09:06 14.9 °C 12.8 °C 1008 hPa NNW 11.1 km/h 20.9 km/h 87% 0 mm meteobridge W/m2
09:12 15.2 °C 12.9 °C 1008 hPa NNE 14.3 km/h 22.5 km/h 86% 0 mm meteobridge W/m2
09:18 15.2 °C 12.9 °C 1008 hPa NNE 14.3 km/h 24.1 km/h 86% 0 mm meteobridge W/m2
09:24 15.1 °C 12.8 °C 1008.4 hPa North 19.5 km/h 22.5 km/h 86% 0 mm meteobridge W/m2
09:31 15.2 °C 12.9 °C 1008.4 hPa NNE 13 km/h 22.5 km/h 86% 0 mm meteobridge W/m2
09:37 15.5 °C 13.2 °C 1008.4 hPa North 13 km/h 20.9 km/h 86% 0 mm meteobridge W/m2
09:43 15.6 °C 13.3 °C 1008 hPa NNE 16.3 km/h 22.5 km/h 86% 0 mm meteobridge W/m2
09:49 15.6 °C 13.1 °C 1008 hPa NNE 20.9 km/h 25.7 km/h 85% 0 mm meteobridge W/m2
09:55 15.7 °C 13 °C 1008 hPa North 17.7 km/h 25.7 km/h 84% 0 mm meteobridge W/m2
10:01 15.9 °C 13.2 °C 1008 hPa North 22.7 km/h 24.1 km/h 84% 0 mm meteobridge W/m2
10:07 16.3 °C 13.4 °C 1008 hPa North 17.7 km/h 22.5 km/h 83% 0 mm meteobridge W/m2
10:14 16.7 °C 13.6 °C 1008.4 hPa North 16.3 km/h 20.9 km/h 82% 0 mm meteobridge W/m2
10:20 17 °C 13.5 °C 1008 hPa NNE 20.9 km/h 22.5 km/h 80% 0 mm meteobridge W/m2
10:26 17.4 °C 13.7 °C 1008 hPa NNE 16.3 km/h 25.7 km/h 79% 0 mm meteobridge W/m2
10:32 17.9 °C 14 °C 1008 hPa NNE 9.7 km/h 19.3 km/h 78% 0 mm meteobridge W/m2
10:38 17.9 °C 13.4 °C 1008 hPa NNE 17.7 km/h 24.1 km/h 75% 0 mm meteobridge W/m2
10:44 17.9 °C 13.8 °C 1008 hPa North 16.3 km/h 22.5 km/h 77% 0 mm meteobridge W/m2
10:50 17.8 °C 13.3 °C 1008 hPa NNW 16.3 km/h 22.5 km/h 75% 0 mm meteobridge W/m2
10:56 18.1 °C 13.8 °C 1008 hPa North 17.7 km/h 25.7 km/h 76% 0 mm meteobridge W/m2
11:02 18.4 °C 13.7 °C 1008 hPa North 7.9 km/h 24.1 km/h 74% 0 mm meteobridge W/m2
11:09 18.7 °C 13.8 °C 1008 hPa NNW 11.1 km/h 20.9 km/h 73% 0 mm meteobridge W/m2
11:15 18.8 °C 13.6 °C 1008 hPa NNE 9.7 km/h 20.9 km/h 72% 0 mm meteobridge W/m2
11:21 18.8 °C 13.6 °C 1008 hPa NNE 7.9 km/h 20.9 km/h 72% 0 mm meteobridge W/m2
11:27 19 °C 13.8 °C 1008 hPa North 9.7 km/h 16.1 km/h 72% 0 mm meteobridge W/m2
11:33 18.9 °C 14 °C 1008 hPa NNE 9.7 km/h 20.9 km/h 73% 0 mm meteobridge W/m2
11:39 18.9 °C 14 °C 1008 hPa NNW 9.7 km/h 19.3 km/h 73% 0 mm meteobridge W/m2
11:45 19.2 °C 14 °C 1008 hPa NE 14.3 km/h 16.1 km/h 72% 0 mm meteobridge W/m2
11:51 19.9 °C 14.3 °C 1008 hPa NNE 11.1 km/h 16.1 km/h 70% 0 mm meteobridge W/m2
11:57 19.7 °C 13.9 °C 1008 hPa North 13 km/h 19.3 km/h 69% 0 mm meteobridge W/m2
12:03 19.6 °C 14 °C 1008 hPa NNE 7.9 km/h 20.9 km/h 70% 0 mm meteobridge W/m2
12:10 19.8 °C 14.2 °C 1008 hPa NNW 9.7 km/h 16.1 km/h 70% 0 mm meteobridge W/m2
12:16 19.7 °C 13.2 °C 1008 hPa North 4.7 km/h 8 km/h 66% 0 mm meteobridge W/m2
12:22 20.7 °C 13.6 °C 1008 hPa ENE 4.7 km/h 14.5 km/h 64% 0 mm meteobridge W/m2
12:28 21.5 °C 13.4 °C 1008 hPa NE 7.9 km/h 17.7 km/h 60% 0 mm meteobridge W/m2
12:34 21.4 °C 13.1 °C 1008 hPa ENE 4.7 km/h 27.4 km/h 59% 0 mm meteobridge W/m2
12:40 21.7 °C 13.3 °C 1007.7 hPa North 22.7 km/h 22.7 km/h 59% 0 mm meteobridge W/m2
12:46 21.6 °C 13.8 °C 1007.7 hPa ENE 4.7 km/h 22.5 km/h 61% 0 mm meteobridge W/m2
12:52 21.9 °C 13.8 °C 1007.7 hPa NE 14.3 km/h 19.3 km/h 60% 0 mm meteobridge W/m2
12:59 21.5 °C 12.9 °C 1007.7 hPa NNE 17.7 km/h 19.3 km/h 58% 0 mm meteobridge W/m2
13:05 20.9 °C 12.6 °C 1007.7 hPa NNE 11.1 km/h 25.7 km/h 59% 0 mm meteobridge W/m2
13:11 21.2 °C 13.1 °C 1007.7 hPa North 22.7 km/h 25.7 km/h 60% 0 mm meteobridge W/m2
13:17 21.4 °C 13.1 °C 1007.7 hPa NE 9.7 km/h 17.7 km/h 59% 0 mm meteobridge W/m2
13:23 22.3 °C 13.6 °C 1007.7 hPa NE 19.5 km/h 29 km/h 58% 0 mm meteobridge W/m2
13:29 21.9 °C 13.5 °C 1007.7 hPa NNE 16.3 km/h 22.5 km/h 59% 0 mm meteobridge W/m2
13:35 21.5 °C 13.4 °C 1007.7 hPa NE 13 km/h 25.7 km/h 60% 0 mm meteobridge W/m2
13:42 20.7 °C 13.2 °C 1007.7 hPa Calm   19.3 km/h 62% 0 mm meteobridge W/m2
13:48 20.4 °C 13.1 °C 1007.7 hPa NNE 6.4 km/h 19.3 km/h 63% 0 mm meteobridge W/m2
13:54 20.3 °C 13 °C 1007.7 hPa NE 17.7 km/h 25.7 km/h 63% 0 mm meteobridge W/m2
14:00 20.3 °C 13.3 °C 1007.3 hPa NNE 22.7 km/h 33.8 km/h 64% 0 mm meteobridge W/m2
14:06 21.2 °C 13.6 °C 1007.3 hPa NNE 11.1 km/h 29 km/h 62% 0 mm meteobridge W/m2
14:12 21.9 °C 13.5 °C 1006.7 hPa NE 11.1 km/h 24.1 km/h 59% 0 mm meteobridge W/m2
14:18 21.9 °C 13.3 °C 1006.7 hPa NE 11.1 km/h 22.5 km/h 58% 0 mm meteobridge W/m2
14:25 23.2 °C 13.9 °C 1006.7 hPa ENE 7.9 km/h 16.1 km/h 56% 0 mm meteobridge W/m2
14:31 23.2 °C 13.4 °C 1006.7 hPa SE 6.4 km/h 16.1 km/h 54% 0 mm meteobridge W/m2
14:37 24 °C 13.8 °C 1006.3 hPa NNE 19.5 km/h 19.5 km/h 53% 0 mm meteobridge W/m2
14:43 23.1 °C 13.6 °C 1006.3 hPa NNE 19.5 km/h 27.4 km/h 55% 0 mm meteobridge W/m2
14:49 22.1 °C 13.4 °C 1006.3 hPa NNE 7.9 km/h 16.1 km/h 58% 0 mm meteobridge W/m2
14:55 22.1 °C 13.4 °C 1006.3 hPa NE 1.4 km/h 20.9 km/h 58% 0 mm meteobridge W/m2
15:01 22.1 °C 13.4 °C 1006.3 hPa ENE 3.2 km/h 9.7 km/h 58% 0 mm meteobridge W/m2
15:07 22.6 °C 13.9 °C 1006 hPa ENE 7.9 km/h 11.3 km/h 58% 0 mm meteobridge W/m2
15:13 23.4 °C 13.8 °C 1005.6 hPa SE 3.2 km/h 17.7 km/h 55% 0 mm meteobridge W/m2
15:19 23.9 °C 13.7 °C 1005.6 hPa NNE 7.9 km/h 9.7 km/h 53% 0 mm meteobridge W/m2
15:25 24 °C 13.8 °C 1005.6 hPa NNE 3.2 km/h 11.3 km/h 53% 0 mm meteobridge W/m2
15:31 24.2 °C 13.7 °C 1005.6 hPa NNE 3.2 km/h 16.1 km/h 52% 0 mm meteobridge W/m2
15:37 23.8 °C 13.9 °C 1005.6 hPa ESE 9.7 km/h 19.3 km/h 54% 0 mm meteobridge W/m2
15:43 22.9 °C 13.9 °C 1005.6 hPa ENE 7.9 km/h 25.7 km/h 57% 0 mm meteobridge W/m2
15:50 21.9 °C 13.5 °C 1005.6 hPa NE 3.2 km/h 16.1 km/h 59% 0 mm meteobridge W/m2
15:56 21.9 °C 14 °C 1005.3 hPa ENE 19.5 km/h 19.5 km/h 61% 0 mm meteobridge W/m2
16:02 22.4 °C 13.7 °C 1005.3 hPa NE 16.3 km/h 24.1 km/h 58% 0 mm meteobridge W/m2
16:08 22.8 °C 13.6 °C 1005.3 hPa ENE 6.4 km/h 19.3 km/h 56% 0 mm meteobridge W/m2
16:14 23.1 °C 13.3 °C 1005.3 hPa ESE 4.7 km/h 11.3 km/h 54% 0 mm meteobridge W/m2
16:20 22.7 °C 12.9 °C 1005.3 hPa NE 14.3 km/h 20.9 km/h 54% 0 mm meteobridge W/m2
16:27 22.4 °C 12.9 °C 1005.3 hPa NE 6.4 km/h 9.7 km/h 55% 0 mm meteobridge W/m2
16:33 22.7 °C 13.2 °C 1005.3 hPa NNE 13 km/h 17.7 km/h 55% 0 mm meteobridge W/m2
16:39 22.5 °C 12.7 °C 1005.6 hPa NE 4.7 km/h 14.5 km/h 54% 0 mm meteobridge W/m2
16:45 22.5 °C 13.3 °C 1005.6 hPa North 4.7 km/h 9.7 km/h 56% 0 mm meteobridge W/m2
16:51 22.6 °C 13.4 °C 1005.3 hPa East 4.7 km/h 6.4 km/h 56% 0 mm meteobridge W/m2
16:57 23 °C 13.5 °C 1005.6 hPa SE 4.7 km/h 8 km/h 55% 0 mm meteobridge W/m2
17:03 23.1 °C 13.6 °C 1005.6 hPa NNE 9.7 km/h 14.5 km/h 55% 0 mm meteobridge W/m2
17:09 22.5 °C 13.3 °C 1005.3 hPa North 7.9 km/h 9.7 km/h 56% 0 mm meteobridge W/m2
17:15 22.1 °C 13.2 °C 1005.6 hPa NE 4.7 km/h 9.7 km/h 57% 0 mm meteobridge W/m2
17:22 21.9 °C 13.3 °C 1005.6 hPa Calm   6.4 km/h 58% 0 mm meteobridge W/m2
17:28 21.8 °C 13.4 °C 1005.3 hPa ENE 7.9 km/h 9.7 km/h 59% 0 mm meteobridge W/m2
17:34 21.6 °C 13.2 °C 1005.3 hPa East 3.2 km/h 8 km/h 59% 0 mm meteobridge W/m2
17:40 21.4 °C 13.1 °C 1005.6 hPa East 1.4 km/h 11.3 km/h 59% 0 mm meteobridge W/m2
17:46 21.3 °C 13.2 °C 1005.3 hPa NNE 4.7 km/h 11.3 km/h 60% 0 mm meteobridge W/m2
17:52 21.2 °C 13.6 °C 1005.3 hPa ENE 4.7 km/h 4.8 km/h 62% 0 mm meteobridge W/m2
17:58 21.1 °C 13.5 °C 1005.3 hPa ENE 1.4 km/h 8 km/h 62% 0 mm meteobridge W/m2
18:04 21.1 °C 13.3 °C 1005.6 hPa SSE 1.4 km/h 6.4 km/h 61% 0 mm meteobridge W/m2
18:11 20.9 °C 13.1 °C 1005.6 hPa South 4.7 km/h 14.5 km/h 61% 0 mm meteobridge W/m2
18:16 20.8 °C 13 °C 1005.3 hPa South 7.9 km/h 11.3 km/h 61% 0 mm meteobridge W/m2
18:23 20.8 °C 13 °C 1005.6 hPa South 7.9 km/h 17.7 km/h 61% 0 mm meteobridge W/m2
18:29 20.8 °C 13 °C 1005.6 hPa South 7.9 km/h 20.9 km/h 61% 0 mm meteobridge W/m2
18:35 20.8 °C 13 °C 1006 hPa SSW 11.1 km/h 16.1 km/h 61% 0 mm meteobridge W/m2
18:41 20 °C 13.7 °C 1006.3 hPa SW 17.7 km/h 43.5 km/h 67% 0 mm meteobridge W/m2
18:47 19.1 °C 13.9 °C 1006.3 hPa SSW 20.9 km/h 29 km/h 72% 0 mm meteobridge W/m2
18:53 19 °C 13.8 °C 1006.3 hPa South 11.1 km/h 11.3 km/h 72% 0 mm meteobridge W/m2
19:00 19 °C 13.8 °C 1006.3 hPa South 11.1 km/h -1607.7 km/h 72% 0 mm meteobridge W/m2
19:06 19 °C 13.8 °C 1006.7 hPa North -1609.1 km/h -1607.7 km/h 72% 0 mm meteobridge W/m2
Regenstein, Windhoek, Namibia
Compliments of Weather Underground - 2.5 mb